sensor_id;sensor_type;location;lat;lon;timestamp;P1;durP1;ratioP1;P2;durP2;ratioP2
1877;SDS011;939;51.426;6.972;2024-03-07T00:01:17;23.38;;;10.15;;
1877;SDS011;939;51.426;6.972;2024-03-07T00:03:45;16.10;;;9.90;;
1877;SDS011;939;51.426;6.972;2024-03-07T00:06:12;37.15;;;14.70;;
1877;SDS011;939;51.426;6.972;2024-03-07T00:08:39;21.48;;;10.50;;
1877;SDS011;939;51.426;6.972;2024-03-07T00:11:06;22.50;;;10.20;;
1877;SDS011;939;51.426;6.972;2024-03-07T00:13:34;19.13;;;10.30;;
1877;SDS011;939;51.426;6.972;2024-03-07T00:16:01;17.27;;;9.82;;
1877;SDS011;939;51.426;6.972;2024-03-07T00:18:30;22.63;;;8.80;;
1877;SDS011;939;51.426;6.972;2024-03-07T00:20:56;30.00;;;11.23;;
1877;SDS011;939;51.426;6.972;2024-03-07T00:23:23;15.90;;;10.80;;
1877;SDS011;939;51.426;6.972;2024-03-07T00:25:51;19.85;;;10.23;;
1877;SDS011;939;51.426;6.972;2024-03-07T00:28:18;20.02;;;10.65;;
1877;SDS011;939;51.426;6.972;2024-03-07T00:30:45;26.80;;;13.48;;
1877;SDS011;939;51.426;6.972;2024-03-07T00:33:12;23.63;;;12.25;;
1877;SDS011;939;51.426;6.972;2024-03-07T00:35:40;15.43;;;9.68;;
1877;SDS011;939;51.426;6.972;2024-03-07T00:38:09;25.00;;;11.40;;
1877;SDS011;939;51.426;6.972;2024-03-07T00:40:36;33.08;;;9.13;;
1877;SDS011;939;51.426;6.972;2024-03-07T00:43:03;25.70;;;10.18;;
1877;SDS011;939;51.426;6.972;2024-03-07T00:45:31;13.80;;;7.78;;
1877;SDS011;939;51.426;6.972;2024-03-07T00:47:58;25.73;;;8.50;;
1877;SDS011;939;51.426;6.972;2024-03-07T00:50:25;16.10;;;10.27;;
1877;SDS011;939;51.426;6.972;2024-03-07T00:52:54;27.65;;;12.23;;
1877;SDS011;939;51.426;6.972;2024-03-07T00:55:20;17.35;;;10.68;;
1877;SDS011;939;51.426;6.972;2024-03-07T00:57:47;27.40;;;14.10;;
1877;SDS011;939;51.426;6.972;2024-03-07T01:00:14;20.05;;;9.95;;
1877;SDS011;939;51.426;6.972;2024-03-07T01:02:46;16.23;;;9.18;;
1877;SDS011;939;51.426;6.972;2024-03-07T01:05:13;22.80;;;13.05;;
1877;SDS011;939;51.426;6.972;2024-03-07T01:07:39;18.85;;;8.60;;
1877;SDS011;939;51.426;6.972;2024-03-07T01:10:09;18.58;;;9.70;;
1877;SDS011;939;51.426;6.972;2024-03-07T01:12:36;25.13;;;12.27;;
1877;SDS011;939;51.426;6.972;2024-03-07T01:15:03;15.48;;;7.68;;
1877;SDS011;939;51.426;6.972;2024-03-07T01:17:30;33.00;;;11.50;;
1877;SDS011;939;51.426;6.972;2024-03-07T01:19:57;23.67;;;11.82;;
1877;SDS011;939;51.426;6.972;2024-03-07T01:22:24;22.80;;;10.63;;
1877;SDS011;939;51.426;6.972;2024-03-07T01:24:51;27.85;;;13.75;;
1877;SDS011;939;51.426;6.972;2024-03-07T01:27:19;5.25;;;4.63;;
1877;SDS011;939;51.426;6.972;2024-03-07T01:29:49;27.25;;;10.90;;
1877;SDS011;939;51.426;6.972;2024-03-07T01:32:16;14.35;;;9.48;;
1877;SDS011;939;51.426;6.972;2024-03-07T01:34:43;15.15;;;9.95;;
1877;SDS011;939;51.426;6.972;2024-03-07T01:37:10;17.40;;;9.52;;
1877;SDS011;939;51.426;6.972;2024-03-07T01:39:37;18.63;;;10.30;;
1877;SDS011;939;51.426;6.972;2024-03-07T01:42:04;21.38;;;10.18;;
1877;SDS011;939;51.426;6.972;2024-03-07T01:44:34;28.52;;;10.98;;
1877;SDS011;939;51.426;6.972;2024-03-07T01:47:01;10.48;;;6.85;;
1877;SDS011;939;51.426;6.972;2024-03-07T01:49:29;19.52;;;10.68;;
1877;SDS011;939;51.426;6.972;2024-03-07T01:51:56;29.98;;;11.02;;
1877;SDS011;939;51.426;6.972;2024-03-07T01:54:23;17.30;;;10.25;;
1877;SDS011;939;51.426;6.972;2024-03-07T01:56:51;23.70;;;10.52;;
1877;SDS011;939;51.426;6.972;2024-03-07T01:59:18;23.75;;;12.00;;
1877;SDS011;939;51.426;6.972;2024-03-07T02:01:47;22.65;;;11.85;;
1877;SDS011;939;51.426;6.972;2024-03-07T02:04:15;18.38;;;9.75;;
1877;SDS011;939;51.426;6.972;2024-03-07T02:06:41;16.30;;;7.93;;
1877;SDS011;939;51.426;6.972;2024-03-07T02:09:08;18.77;;;13.85;;
1877;SDS011;939;51.426;6.972;2024-03-07T02:11:35;23.40;;;11.10;;
1877;SDS011;939;51.426;6.972;2024-03-07T02:14:02;15.02;;;9.90;;
1877;SDS011;939;51.426;6.972;2024-03-07T02:16:29;29.15;;;14.18;;
1877;SDS011;939;51.426;6.972;2024-03-07T02:18:57;25.95;;;13.20;;
1877;SDS011;939;51.426;6.972;2024-03-07T02:21:27;32.67;;;12.40;;
1877;SDS011;939;51.426;6.972;2024-03-07T02:23:53;18.38;;;9.80;;
1877;SDS011;939;51.426;6.972;2024-03-07T02:26:21;30.60;;;13.68;;
1877;SDS011;939;51.426;6.972;2024-03-07T02:28:48;17.00;;;11.93;;
1877;SDS011;939;51.426;6.972;2024-03-07T02:31:15;16.00;;;10.98;;
1877;SDS011;939;51.426;6.972;2024-03-07T02:33:41;16.27;;;11.43;;
1877;SDS011;939;51.426;6.972;2024-03-07T02:36:08;14.18;;;8.90;;
1877;SDS011;939;51.426;6.972;2024-03-07T02:38:36;37.75;;;13.10;;
1877;SDS011;939;51.426;6.972;2024-03-07T02:41:04;27.05;;;11.90;;
1877;SDS011;939;51.426;6.972;2024-03-07T02:43:31;23.48;;;12.18;;
1877;SDS011;939;51.426;6.972;2024-03-07T02:45:58;21.00;;;11.27;;
1877;SDS011;939;51.426;6.972;2024-03-07T02:48:24;19.08;;;11.63;;
1877;SDS011;939;51.426;6.972;2024-03-07T02:50:51;33.17;;;11.75;;
1877;SDS011;939;51.426;6.972;2024-03-07T02:53:18;20.90;;;12.20;;
1877;SDS011;939;51.426;6.972;2024-03-07T02:55:46;35.08;;;11.43;;
1877;SDS011;939;51.426;6.972;2024-03-07T02:58:14;34.45;;;16.05;;
1877;SDS011;939;51.426;6.972;2024-03-07T03:00:41;36.30;;;16.30;;
1877;SDS011;939;51.426;6.972;2024-03-07T03:03:08;25.88;;;13.32;;
1877;SDS011;939;51.426;6.972;2024-03-07T03:05:34;21.33;;;11.50;;
1877;SDS011;939;51.426;6.972;2024-03-07T03:08:01;30.75;;;13.48;;
1877;SDS011;939;51.426;6.972;2024-03-07T03:10:32;31.67;;;14.15;;
1877;SDS011;939;51.426;6.972;2024-03-07T03:13:00;26.00;;;12.30;;
1877;SDS011;939;51.426;6.972;2024-03-07T03:15:27;31.33;;;10.85;;
1877;SDS011;939;51.426;6.972;2024-03-07T03:17:54;21.08;;;15.20;;
1877;SDS011;939;51.426;6.972;2024-03-07T03:20:24;23.58;;;13.25;;
1877;SDS011;939;51.426;6.972;2024-03-07T03:22:51;16.63;;;6.13;;
1877;SDS011;939;51.426;6.972;2024-03-07T03:25:19;20.63;;;10.90;;
1877;SDS011;939;51.426;6.972;2024-03-07T03:27:46;23.63;;;11.68;;
1877;SDS011;939;51.426;6.972;2024-03-07T03:30:15;28.00;;;9.25;;
1877;SDS011;939;51.426;6.972;2024-03-07T03:32:43;24.45;;;13.43;;
1877;SDS011;939;51.426;6.972;2024-03-07T03:35:11;18.30;;;9.43;;
1877;SDS011;939;51.426;6.972;2024-03-07T03:40:07;8.95;;;6.20;;
1877;SDS011;939;51.426;6.972;2024-03-07T03:42:35;18.40;;;10.52;;
1877;SDS011;939;51.426;6.972;2024-03-07T03:45:03;28.02;;;10.25;;
1877;SDS011;939;51.426;6.972;2024-03-07T03:47:33;22.52;;;9.27;;
1877;SDS011;939;51.426;6.972;2024-03-07T03:50:01;24.17;;;12.93;;
1877;SDS011;939;51.426;6.972;2024-03-07T03:52:28;14.65;;;11.18;;
1877;SDS011;939;51.426;6.972;2024-03-07T03:54:55;8.38;;;3.47;;
1877;SDS011;939;51.426;6.972;2024-03-07T03:57:23;17.35;;;13.40;;
1877;SDS011;939;51.426;6.972;2024-03-07T03:59:50;22.08;;;12.43;;
1877;SDS011;939;51.426;6.972;2024-03-07T04:02:17;19.13;;;12.70;;
1877;SDS011;939;51.426;6.972;2024-03-07T04:04:45;6.68;;;4.95;;
1877;SDS011;939;51.426;6.972;2024-03-07T04:07:12;14.75;;;10.60;;
1877;SDS011;939;51.426;6.972;2024-03-07T04:09:40;24.23;;;11.73;;
1877;SDS011;939;51.426;6.972;2024-03-07T04:12:07;26.90;;;11.52;;
1877;SDS011;939;51.426;6.972;2024-03-07T04:14:35;16.00;;;11.52;;
1877;SDS011;939;51.426;6.972;2024-03-07T04:17:02;20.20;;;11.70;;
1877;SDS011;939;51.426;6.972;2024-03-07T04:19:31;20.33;;;9.20;;
1877;SDS011;939;51.426;6.972;2024-03-07T04:22:00;28.80;;;12.05;;
1877;SDS011;939;51.426;6.972;2024-03-07T04:24:28;28.05;;;12.20;;
1877;SDS011;939;51.426;6.972;2024-03-07T04:26:56;18.00;;;12.27;;
1877;SDS011;939;51.426;6.972;2024-03-07T04:29:24;19.92;;;9.80;;
1877;SDS011;939;51.426;6.972;2024-03-07T04:31:50;28.23;;;8.52;;
1877;SDS011;939;51.426;6.972;2024-03-07T04:34:17;11.18;;;6.45;;
1877;SDS011;939;51.426;6.972;2024-03-07T04:36:44;16.88;;;7.47;;
1877;SDS011;939;51.426;6.972;2024-03-07T04:39:12;26.77;;;12.80;;
1877;SDS011;939;51.426;6.972;2024-03-07T04:41:49;24.48;;;10.50;;
1877;SDS011;939;51.426;6.972;2024-03-07T04:44:17;6.72;;;5.20;;
1877;SDS011;939;51.426;6.972;2024-03-07T04:46:44;33.92;;;13.48;;
1877;SDS011;939;51.426;6.972;2024-03-07T04:49:11;32.78;;;13.20;;
1877;SDS011;939;51.426;6.972;2024-03-07T04:51:38;21.80;;;10.70;;
1877;SDS011;939;51.426;6.972;2024-03-07T04:54:05;32.08;;;12.77;;
1877;SDS011;939;51.426;6.972;2024-03-07T04:56:33;34.78;;;13.40;;
1877;SDS011;939;51.426;6.972;2024-03-07T04:59:00;29.52;;;12.07;;
1877;SDS011;939;51.426;6.972;2024-03-07T05:01:27;25.00;;;12.25;;
1877;SDS011;939;51.426;6.972;2024-03-07T05:03:56;29.73;;;11.77;;
1877;SDS011;939;51.426;6.972;2024-03-07T05:06:23;25.95;;;10.15;;
1877;SDS011;939;51.426;6.972;2024-03-07T05:08:49;24.48;;;15.23;;
1877;SDS011;939;51.426;6.972;2024-03-07T05:11:16;22.23;;;12.00;;
1877;SDS011;939;51.426;6.972;2024-03-07T05:13:44;21.83;;;12.88;;
1877;SDS011;939;51.426;6.972;2024-03-07T05:16:11;30.00;;;14.70;;
1877;SDS011;939;51.426;6.972;2024-03-07T05:18:38;18.48;;;11.57;;
1877;SDS011;939;51.426;6.972;2024-03-07T05:21:05;14.98;;;8.30;;
1877;SDS011;939;51.426;6.972;2024-03-07T05:23:46;24.63;;;11.35;;
1877;SDS011;939;51.426;6.972;2024-03-07T05:26:14;24.85;;;12.57;;
1877;SDS011;939;51.426;6.972;2024-03-07T05:28:40;16.65;;;10.20;;
1877;SDS011;939;51.426;6.972;2024-03-07T05:31:09;34.25;;;17.45;;
1877;SDS011;939;51.426;6.972;2024-03-07T05:33:37;32.38;;;13.07;;
1877;SDS011;939;51.426;6.972;2024-03-07T05:36:05;22.27;;;12.73;;
1877;SDS011;939;51.426;6.972;2024-03-07T05:38:40;16.83;;;10.40;;
1877;SDS011;939;51.426;6.972;2024-03-07T05:41:08;21.63;;;10.05;;
1877;SDS011;939;51.426;6.972;2024-03-07T05:43:35;19.50;;;10.32;;
1877;SDS011;939;51.426;6.972;2024-03-07T05:46:02;17.55;;;10.95;;
1877;SDS011;939;51.426;6.972;2024-03-07T05:48:32;15.48;;;9.45;;
1877;SDS011;939;51.426;6.972;2024-03-07T05:50:59;22.30;;;10.57;;
1877;SDS011;939;51.426;6.972;2024-03-07T05:53:29;15.05;;;8.80;;
1877;SDS011;939;51.426;6.972;2024-03-07T05:55:56;27.38;;;10.10;;
1877;SDS011;939;51.426;6.972;2024-03-07T05:58:23;23.05;;;8.98;;
1877;SDS011;939;51.426;6.972;2024-03-07T06:00:50;21.13;;;9.88;;
1877;SDS011;939;51.426;6.972;2024-03-07T06:03:17;21.42;;;12.55;;
1877;SDS011;939;51.426;6.972;2024-03-07T06:05:46;17.55;;;10.75;;
1877;SDS011;939;51.426;6.972;2024-03-07T06:08:14;16.08;;;9.27;;
1877;SDS011;939;51.426;6.972;2024-03-07T06:10:42;18.77;;;9.93;;
1877;SDS011;939;51.426;6.972;2024-03-07T06:13:09;20.35;;;9.90;;
1877;SDS011;939;51.426;6.972;2024-03-07T06:15:37;19.80;;;9.80;;
1877;SDS011;939;51.426;6.972;2024-03-07T06:18:04;24.02;;;12.40;;
1877;SDS011;939;51.426;6.972;2024-03-07T06:20:33;25.02;;;11.52;;
1877;SDS011;939;51.426;6.972;2024-03-07T06:23:02;23.35;;;10.57;;
1877;SDS011;939;51.426;6.972;2024-03-07T06:25:30;18.10;;;9.05;;
1877;SDS011;939;51.426;6.972;2024-03-07T06:28:02;13.48;;;7.65;;
1877;SDS011;939;51.426;6.972;2024-03-07T06:30:35;13.82;;;8.20;;
1877;SDS011;939;51.426;6.972;2024-03-07T06:33:02;21.05;;;9.90;;
1877;SDS011;939;51.426;6.972;2024-03-07T06:35:29;19.70;;;11.82;;
1877;SDS011;939;51.426;6.972;2024-03-07T06:37:56;22.65;;;10.82;;
1877;SDS011;939;51.426;6.972;2024-03-07T06:40:24;15.52;;;10.85;;
1877;SDS011;939;51.426;6.972;2024-03-07T06:42:51;21.35;;;11.80;;
1877;SDS011;939;51.426;6.972;2024-03-07T06:45:18;12.73;;;9.57;;
1877;SDS011;939;51.426;6.972;2024-03-07T06:47:45;24.83;;;10.23;;
1877;SDS011;939;51.426;6.972;2024-03-07T06:50:13;8.63;;;5.68;;
1877;SDS011;939;51.426;6.972;2024-03-07T06:52:42;22.13;;;8.93;;
1877;SDS011;939;51.426;6.972;2024-03-07T06:55:10;17.52;;;9.73;;
1877;SDS011;939;51.426;6.972;2024-03-07T06:57:38;11.35;;;7.22;;
1877;SDS011;939;51.426;6.972;2024-03-07T07:00:05;16.45;;;9.88;;
1877;SDS011;939;51.426;6.972;2024-03-07T07:02:36;15.82;;;8.77;;
1877;SDS011;939;51.426;6.972;2024-03-07T07:05:04;23.05;;;11.52;;
1877;SDS011;939;51.426;6.972;2024-03-07T07:07:36;30.85;;;12.23;;
1877;SDS011;939;51.426;6.972;2024-03-07T07:10:03;27.48;;;13.77;;
1877;SDS011;939;51.426;6.972;2024-03-07T07:12:38;20.88;;;10.80;;
1877;SDS011;939;51.426;6.972;2024-03-07T07:15:05;25.15;;;9.57;;
1877;SDS011;939;51.426;6.972;2024-03-07T07:17:33;25.63;;;13.23;;
1877;SDS011;939;51.426;6.972;2024-03-07T07:19:59;12.30;;;7.63;;
1877;SDS011;939;51.426;6.972;2024-03-07T07:22:26;17.85;;;11.85;;
1877;SDS011;939;51.426;6.972;2024-03-07T07:24:53;28.48;;;13.15;;
1877;SDS011;939;51.426;6.972;2024-03-07T07:27:20;25.52;;;15.68;;
1877;SDS011;939;51.426;6.972;2024-03-07T07:29:48;21.20;;;12.32;;
1877;SDS011;939;51.426;6.972;2024-03-07T07:32:15;19.95;;;13.27;;
1877;SDS011;939;51.426;6.972;2024-03-07T07:34:42;12.68;;;6.20;;
1877;SDS011;939;51.426;6.972;2024-03-07T07:37:09;37.03;;;11.38;;
1877;SDS011;939;51.426;6.972;2024-03-07T07:39:36;19.20;;;10.30;;
1877;SDS011;939;51.426;6.972;2024-03-07T07:42:03;19.63;;;10.07;;
1877;SDS011;939;51.426;6.972;2024-03-07T07:44:30;14.25;;;9.93;;
1877;SDS011;939;51.426;6.972;2024-03-07T07:46:59;25.50;;;12.60;;
1877;SDS011;939;51.426;6.972;2024-03-07T07:49:26;18.75;;;10.85;;
1877;SDS011;939;51.426;6.972;2024-03-07T07:51:53;18.67;;;9.90;;
1877;SDS011;939;51.426;6.972;2024-03-07T07:54:22;9.77;;;6.78;;
1877;SDS011;939;51.426;6.972;2024-03-07T07:56:49;12.93;;;8.10;;
1877;SDS011;939;51.426;6.972;2024-03-07T07:59:17;20.38;;;11.60;;
1877;SDS011;939;51.426;6.972;2024-03-07T08:01:43;30.35;;;14.23;;
1877;SDS011;939;51.426;6.972;2024-03-07T08:04:12;16.40;;;8.48;;
1877;SDS011;939;51.426;6.972;2024-03-07T08:06:38;16.42;;;9.73;;
1877;SDS011;939;51.426;6.972;2024-03-07T08:09:06;16.98;;;10.32;;
1877;SDS011;939;51.426;6.972;2024-03-07T08:11:35;15.35;;;8.50;;
1877;SDS011;939;51.426;6.972;2024-03-07T08:14:03;18.98;;;11.02;;
1877;SDS011;939;51.426;6.972;2024-03-07T08:16:31;5.18;;;4.50;;
1877;SDS011;939;51.426;6.972;2024-03-07T08:18:58;7.35;;;5.72;;
1877;SDS011;939;51.426;6.972;2024-03-07T08:21:27;15.73;;;10.15;;
1877;SDS011;939;51.426;6.972;2024-03-07T08:23:55;23.45;;;12.07;;
1877;SDS011;939;51.426;6.972;2024-03-07T08:26:23;18.25;;;9.10;;
1877;SDS011;939;51.426;6.972;2024-03-07T08:28:49;26.63;;;10.70;;
1877;SDS011;939;51.426;6.972;2024-03-07T08:31:15;14.00;;;10.23;;
1877;SDS011;939;51.426;6.972;2024-03-07T08:33:42;21.55;;;12.80;;
1877;SDS011;939;51.426;6.972;2024-03-07T08:36:10;13.00;;;9.05;;
1877;SDS011;939;51.426;6.972;2024-03-07T08:38:38;16.25;;;9.00;;
1877;SDS011;939;51.426;6.972;2024-03-07T08:41:05;13.95;;;8.38;;
1877;SDS011;939;51.426;6.972;2024-03-07T08:43:32;17.40;;;6.45;;
1877;SDS011;939;51.426;6.972;2024-03-07T08:45:59;16.85;;;8.50;;
1877;SDS011;939;51.426;6.972;2024-03-07T08:48:25;22.70;;;11.38;;
1877;SDS011;939;51.426;6.972;2024-03-07T08:50:52;21.15;;;8.52;;
1877;SDS011;939;51.426;6.972;2024-03-07T08:53:19;21.77;;;10.75;;
1877;SDS011;939;51.426;6.972;2024-03-07T08:55:47;22.75;;;10.23;;
1877;SDS011;939;51.426;6.972;2024-03-07T08:58:15;11.98;;;6.63;;
1877;SDS011;939;51.426;6.972;2024-03-07T09:00:42;11.88;;;8.95;;
1877;SDS011;939;51.426;6.972;2024-03-07T09:03:10;15.52;;;7.68;;
1877;SDS011;939;51.426;6.972;2024-03-07T09:05:37;17.70;;;9.85;;
1877;SDS011;939;51.426;6.972;2024-03-07T09:08:04;9.07;;;6.28;;
1877;SDS011;939;51.426;6.972;2024-03-07T09:10:32;18.70;;;10.40;;
1877;SDS011;939;51.426;6.972;2024-03-07T09:13:00;15.25;;;8.15;;
1877;SDS011;939;51.426;6.972;2024-03-07T09:15:27;15.27;;;8.23;;
1877;SDS011;939;51.426;6.972;2024-03-07T09:17:54;15.40;;;9.10;;
1877;SDS011;939;51.426;6.972;2024-03-07T09:20:23;7.28;;;5.45;;
1877;SDS011;939;51.426;6.972;2024-03-07T09:22:50;21.67;;;9.55;;
1877;SDS011;939;51.426;6.972;2024-03-07T09:25:19;30.00;;;10.38;;
1877;SDS011;939;51.426;6.972;2024-03-07T09:27:46;12.45;;;7.20;;
1877;SDS011;939;51.426;6.972;2024-03-07T09:30:14;15.85;;;8.52;;
1877;SDS011;939;51.426;6.972;2024-03-07T09:32:49;14.73;;;8.77;;
1877;SDS011;939;51.426;6.972;2024-03-07T09:35:16;21.85;;;11.52;;
1877;SDS011;939;51.426;6.972;2024-03-07T09:37:43;11.60;;;5.88;;
1877;SDS011;939;51.426;6.972;2024-03-07T09:40:11;9.35;;;4.82;;
1877;SDS011;939;51.426;6.972;2024-03-07T09:42:41;14.93;;;9.15;;
1877;SDS011;939;51.426;6.972;2024-03-07T09:45:12;11.18;;;6.78;;
1877;SDS011;939;51.426;6.972;2024-03-07T09:47:44;13.57;;;7.78;;
1877;SDS011;939;51.426;6.972;2024-03-07T09:50:12;16.88;;;9.10;;
1877;SDS011;939;51.426;6.972;2024-03-07T09:52:44;12.43;;;6.03;;
1877;SDS011;939;51.426;6.972;2024-03-07T09:55:14;16.02;;;7.68;;
1877;SDS011;939;51.426;6.972;2024-03-07T09:57:42;14.77;;;9.93;;
1877;SDS011;939;51.426;6.972;2024-03-07T10:00:11;11.07;;;4.38;;
1877;SDS011;939;51.426;6.972;2024-03-07T10:02:49;12.38;;;6.35;;
1877;SDS011;939;51.426;6.972;2024-03-07T10:05:20;6.10;;;5.10;;
1877;SDS011;939;51.426;6.972;2024-03-07T10:07:48;12.60;;;5.38;;
1877;SDS011;939;51.426;6.972;2024-03-07T10:10:17;9.82;;;6.13;;
1877;SDS011;939;51.426;6.972;2024-03-07T10:12:44;12.48;;;6.07;;
1877;SDS011;939;51.426;6.972;2024-03-07T10:15:11;13.25;;;7.10;;
1877;SDS011;939;51.426;6.972;2024-03-07T10:17:39;12.63;;;8.18;;
1877;SDS011;939;51.426;6.972;2024-03-07T10:20:07;12.40;;;7.30;;
1877;SDS011;939;51.426;6.972;2024-03-07T10:22:38;12.68;;;7.03;;
1877;SDS011;939;51.426;6.972;2024-03-07T10:25:06;10.07;;;7.05;;
1877;SDS011;939;51.426;6.972;2024-03-07T10:27:35;7.65;;;5.88;;
1877;SDS011;939;51.426;6.972;2024-03-07T10:30:03;20.50;;;7.50;;
1877;SDS011;939;51.426;6.972;2024-03-07T10:32:33;19.30;;;9.00;;
1877;SDS011;939;51.426;6.972;2024-03-07T10:35:01;19.98;;;8.40;;
1877;SDS011;939;51.426;6.972;2024-03-07T10:37:33;7.40;;;4.78;;
1877;SDS011;939;51.426;6.972;2024-03-07T10:40:01;21.95;;;9.20;;
1877;SDS011;939;51.426;6.972;2024-03-07T10:42:40;14.90;;;9.00;;
1877;SDS011;939;51.426;6.972;2024-03-07T10:45:16;14.07;;;6.68;;
1877;SDS011;939;51.426;6.972;2024-03-07T10:47:43;18.35;;;6.60;;
1877;SDS011;939;51.426;6.972;2024-03-07T10:50:17;11.60;;;5.18;;
1877;SDS011;939;51.426;6.972;2024-03-07T10:52:51;13.38;;;5.93;;
1877;SDS011;939;51.426;6.972;2024-03-07T10:55:28;13.38;;;6.68;;
1877;SDS011;939;51.426;6.972;2024-03-07T10:58:05;14.35;;;6.45;;
1877;SDS011;939;51.426;6.972;2024-03-07T11:00:40;14.68;;;7.63;;
1877;SDS011;939;51.426;6.972;2024-03-07T11:03:11;9.40;;;4.30;;
1877;SDS011;939;51.426;6.972;2024-03-07T11:05:39;8.70;;;6.88;;
1877;SDS011;939;51.426;6.972;2024-03-07T11:08:09;13.23;;;7.13;;
1877;SDS011;939;51.426;6.972;2024-03-07T11:10:37;14.48;;;7.07;;
1877;SDS011;939;51.426;6.972;2024-03-07T11:13:04;10.10;;;6.15;;
1877;SDS011;939;51.426;6.972;2024-03-07T11:15:34;10.32;;;6.50;;
1877;SDS011;939;51.426;6.972;2024-03-07T11:18:02;9.55;;;5.20;;
1877;SDS011;939;51.426;6.972;2024-03-07T11:20:33;10.80;;;5.75;;
1877;SDS011;939;51.426;6.972;2024-03-07T11:23:01;15.95;;;6.15;;
1877;SDS011;939;51.426;6.972;2024-03-07T11:25:55;6.20;;;4.20;;
1877;SDS011;939;51.426;6.972;2024-03-07T11:28:32;11.63;;;6.78;;
1877;SDS011;939;51.426;6.972;2024-03-07T11:36:42;21.23;;;6.85;;
1877;SDS011;939;51.426;6.972;2024-03-07T11:42:08;11.75;;;5.60;;
1877;SDS011;939;51.426;6.972;2024-03-07T11:44:35;14.60;;;8.02;;
1877;SDS011;939;51.426;6.972;2024-03-07T11:47:05;13.40;;;7.78;;
1877;SDS011;939;51.426;6.972;2024-03-07T11:49:34;12.60;;;6.72;;
1877;SDS011;939;51.426;6.972;2024-03-07T11:52:02;9.77;;;4.70;;
1877;SDS011;939;51.426;6.972;2024-03-07T11:54:29;12.45;;;6.85;;
1877;SDS011;939;51.426;6.972;2024-03-07T11:56:59;13.85;;;6.50;;
1877;SDS011;939;51.426;6.972;2024-03-07T11:59:26;12.48;;;8.02;;
1877;SDS011;939;51.426;6.972;2024-03-07T12:02:00;13.27;;;7.32;;
1877;SDS011;939;51.426;6.972;2024-03-07T12:04:28;11.63;;;6.10;;
1877;SDS011;939;51.426;6.972;2024-03-07T12:06:55;14.43;;;6.28;;
1877;SDS011;939;51.426;6.972;2024-03-07T12:09:22;9.30;;;6.28;;
1877;SDS011;939;51.426;6.972;2024-03-07T12:11:49;14.55;;;6.38;;
1877;SDS011;939;51.426;6.972;2024-03-07T12:14:19;15.30;;;7.13;;
1877;SDS011;939;51.426;6.972;2024-03-07T12:16:46;38.33;;;8.98;;
1877;SDS011;939;51.426;6.972;2024-03-07T12:19:13;11.35;;;7.28;;
1877;SDS011;939;51.426;6.972;2024-03-07T12:21:42;17.25;;;7.80;;
1877;SDS011;939;51.426;6.972;2024-03-07T12:24:13;12.63;;;7.38;;
1877;SDS011;939;51.426;6.972;2024-03-07T12:26:41;8.80;;;6.43;;
1877;SDS011;939;51.426;6.972;2024-03-07T12:29:08;12.35;;;6.72;;
1877;SDS011;939;51.426;6.972;2024-03-07T12:31:38;13.63;;;7.10;;
1877;SDS011;939;51.426;6.972;2024-03-07T12:34:05;9.38;;;5.57;;
1877;SDS011;939;51.426;6.972;2024-03-07T12:36:34;11.85;;;8.00;;
1877;SDS011;939;51.426;6.972;2024-03-07T12:39:20;24.03;;;9.57;;
1877;SDS011;939;51.426;6.972;2024-03-07T12:41:51;8.33;;;6.10;;
1877;SDS011;939;51.426;6.972;2024-03-07T12:44:19;14.57;;;8.73;;
1877;SDS011;939;51.426;6.972;2024-03-07T12:46:47;10.60;;;7.03;;
1877;SDS011;939;51.426;6.972;2024-03-07T12:49:14;14.93;;;7.30;;
1877;SDS011;939;51.426;6.972;2024-03-07T12:51:41;10.18;;;7.53;;
1877;SDS011;939;51.426;6.972;2024-03-07T12:54:09;4.10;;;2.95;;
1877;SDS011;939;51.426;6.972;2024-03-07T12:56:36;5.60;;;3.70;;
1877;SDS011;939;51.426;6.972;2024-03-07T12:59:04;12.97;;;7.10;;
1877;SDS011;939;51.426;6.972;2024-03-07T13:01:34;5.50;;;3.63;;
1877;SDS011;939;51.426;6.972;2024-03-07T13:04:05;12.77;;;7.90;;
1877;SDS011;939;51.426;6.972;2024-03-07T13:06:33;9.87;;;6.73;;
1877;SDS011;939;51.426;6.972;2024-03-07T13:09:00;17.20;;;7.43;;
1877;SDS011;939;51.426;6.972;2024-03-07T13:11:27;7.33;;;4.50;;
1877;SDS011;939;51.426;6.972;2024-03-07T13:13:55;11.67;;;6.63;;
1877;SDS011;939;51.426;6.972;2024-03-07T13:16:22;8.60;;;5.90;;
1877;SDS011;939;51.426;6.972;2024-03-07T13:18:52;9.98;;;6.40;;
1877;SDS011;939;51.426;6.972;2024-03-07T13:21:20;14.60;;;6.30;;
1877;SDS011;939;51.426;6.972;2024-03-07T13:23:47;12.13;;;6.47;;
1877;SDS011;939;51.426;6.972;2024-03-07T13:26:17;11.07;;;6.65;;
1877;SDS011;939;51.426;6.972;2024-03-07T13:28:49;12.30;;;6.70;;
1877;SDS011;939;51.426;6.972;2024-03-07T13:31:16;8.63;;;7.00;;
1877;SDS011;939;51.426;6.972;2024-03-07T13:33:43;11.45;;;4.13;;
1877;SDS011;939;51.426;6.972;2024-03-07T13:36:15;9.27;;;6.47;;
1877;SDS011;939;51.426;6.972;2024-03-07T13:38:49;8.65;;;4.30;;
1877;SDS011;939;51.426;6.972;2024-03-07T13:41:17;7.45;;;4.50;;
1877;SDS011;939;51.426;6.972;2024-03-07T13:43:44;9.23;;;5.80;;
1877;SDS011;939;51.426;6.972;2024-03-07T13:52:55;5.30;;;4.70;;
1877;SDS011;939;51.426;6.972;2024-03-07T13:58:45;6.53;;;5.32;;
1877;SDS011;939;51.426;6.972;2024-03-07T14:01:37;5.47;;;3.92;;
1877;SDS011;939;51.426;6.972;2024-03-07T14:04:23;12.10;;;5.90;;
1877;SDS011;939;51.426;6.972;2024-03-07T14:07:13;5.47;;;3.92;;
1877;SDS011;939;51.426;6.972;2024-03-07T14:09:57;6.60;;;4.43;;
1877;SDS011;939;51.426;6.972;2024-03-07T14:13:02;4.80;;;3.90;;
1877;SDS011;939;51.426;6.972;2024-03-07T14:16:12;10.30;;;5.87;;
1877;SDS011;939;51.426;6.972;2024-03-07T14:22:06;5.60;;;3.10;;
1877;SDS011;939;51.426;6.972;2024-03-07T14:27:50;6.45;;;4.15;;
1877;SDS011;939;51.426;6.972;2024-03-07T14:30:36;4.78;;;3.35;;
1877;SDS011;939;51.426;6.972;2024-03-07T14:33:08;6.93;;;4.80;;
1877;SDS011;939;51.426;6.972;2024-03-07T14:35:39;5.80;;;3.35;;
1877;SDS011;939;51.426;6.972;2024-03-07T14:38:26;5.47;;;3.60;;
1877;SDS011;939;51.426;6.972;2024-03-07T14:40:54;8.02;;;5.20;;
1877;SDS011;939;51.426;6.972;2024-03-07T14:43:22;7.13;;;4.97;;
1877;SDS011;939;51.426;6.972;2024-03-07T14:45:51;5.63;;;4.60;;
1877;SDS011;939;51.426;6.972;2024-03-07T14:48:20;5.53;;;3.50;;
1877;SDS011;939;51.426;6.972;2024-03-07T14:50:47;7.32;;;4.30;;
1877;SDS011;939;51.426;6.972;2024-03-07T14:53:14;4.97;;;3.22;;
1877;SDS011;939;51.426;6.972;2024-03-07T14:55:43;5.93;;;4.60;;
1877;SDS011;939;51.426;6.972;2024-03-07T14:58:10;5.95;;;3.17;;
1877;SDS011;939;51.426;6.972;2024-03-07T15:00:39;8.65;;;3.25;;
1877;SDS011;939;51.426;6.972;2024-03-07T15:03:08;7.88;;;3.33;;
1877;SDS011;939;51.426;6.972;2024-03-07T15:05:36;12.75;;;3.80;;
1877;SDS011;939;51.426;6.972;2024-03-07T15:08:03;4.00;;;3.28;;
1877;SDS011;939;51.426;6.972;2024-03-07T15:10:31;3.45;;;2.88;;
1877;SDS011;939;51.426;6.972;2024-03-07T15:13:00;4.78;;;3.17;;
1877;SDS011;939;51.426;6.972;2024-03-07T15:15:28;3.42;;;2.72;;
1877;SDS011;939;51.426;6.972;2024-03-07T15:17:56;11.38;;;4.07;;
1877;SDS011;939;51.426;6.972;2024-03-07T15:20:25;4.30;;;3.15;;
1877;SDS011;939;51.426;6.972;2024-03-07T15:23:12;8.23;;;3.08;;
1877;SDS011;939;51.426;6.972;2024-03-07T15:25:38;5.30;;;3.50;;
1877;SDS011;939;51.426;6.972;2024-03-07T15:28:05;5.10;;;3.13;;
1877;SDS011;939;51.426;6.972;2024-03-07T15:30:32;4.18;;;2.95;;
1877;SDS011;939;51.426;6.972;2024-03-07T15:33:01;5.07;;;2.80;;
1877;SDS011;939;51.426;6.972;2024-03-07T15:35:30;5.18;;;2.65;;
1877;SDS011;939;51.426;6.972;2024-03-07T15:37:57;3.58;;;3.17;;
1877;SDS011;939;51.426;6.972;2024-03-07T15:40:24;7.10;;;3.40;;
1877;SDS011;939;51.426;6.972;2024-03-07T15:42:52;5.10;;;3.55;;
1877;SDS011;939;51.426;6.972;2024-03-07T15:45:22;7.85;;;3.88;;
1877;SDS011;939;51.426;6.972;2024-03-07T15:47:50;5.80;;;3.20;;
1877;SDS011;939;51.426;6.972;2024-03-07T15:50:18;7.68;;;3.47;;